METAR & TAF

RJAH 200700Z 35003KT 9999 FEW030 BKN050 BKN200 07/M02 Q1016
RJAH 200600Z 02003KT 9999 FEW030 BKN050 BKN100 07/M01 Q1016
RJAH 200500Z 34002KT 9999 FEW030 SCT050 BKN080 08/M03 Q1016
RJAH 200400Z 34004KT 310V010 9999 FEW030 SCT050 BKN080 07/M02 Q1017
RJAH 200300Z VRB02KT 9999 FEW030 SCT050 BKN090 07/M03 Q1017

TAF RJAH 200511Z 2006/2112 30004KT 9999 FEW030 BKN040
  TEMPO 2012/2021 4000 BR
  BECMG 2021/2100 36010KT